sensor_id;sensor_type;location;lat;lon;timestamp;pressure;altitude;pressure_sealevel;temperature;humidity
41862;BME280;27537;57.134;-2.136;2022-11-20T00:01:26;100181.28;;;8.78;100.00
41862;BME280;27537;57.134;-2.136;2022-11-20T00:03:55;100189.06;;;8.58;100.00
41862;BME280;27537;57.134;-2.136;2022-11-20T00:06:23;100185.78;;;8.52;100.00
41862;BME280;27537;57.134;-2.136;2022-11-20T00:08:51;100179.81;;;8.49;100.00
41862;BME280;27537;57.134;-2.136;2022-11-20T00:11:21;100187.28;;;8.58;100.00
41862;BME280;27537;57.134;-2.136;2022-11-20T00:13:52;100160.84;;;8.67;100.00
41862;BME280;27537;57.134;-2.136;2022-11-20T00:16:22;100166.31;;;8.83;100.00
41862;BME280;27537;57.134;-2.136;2022-11-20T00:18:49;100171.38;;;8.66;100.00
41862;BME280;27537;57.134;-2.136;2022-11-20T00:21:19;100166.63;;;8.53;100.00
41862;BME280;27537;57.134;-2.136;2022-11-20T00:23:48;100171.66;;;8.80;100.00
41862;BME280;27537;57.134;-2.136;2022-11-20T00:26:21;100165.78;;;8.51;100.00
41862;BME280;27537;57.134;-2.136;2022-11-20T00:28:52;100166.66;;;8.52;100.00
41862;BME280;27537;57.134;-2.136;2022-11-20T00:31:19;100150.28;;;8.70;100.00
41862;BME280;27537;57.134;-2.136;2022-11-20T00:33:46;100155.41;;;8.73;100.00
41862;BME280;27537;57.134;-2.136;2022-11-20T00:36:15;100146.09;;;8.66;100.00
41862;BME280;27537;57.134;-2.136;2022-11-20T00:38:43;100143.03;;;8.55;100.00
41862;BME280;27537;57.134;-2.136;2022-11-20T00:41:13;100153.94;;;8.66;100.00
41862;BME280;27537;57.134;-2.136;2022-11-20T00:43:40;100107.88;;;8.42;100.00
41862;BME280;27537;57.134;-2.136;2022-11-20T00:46:19;100142.81;;;8.61;100.00
41862;BME280;27537;57.134;-2.136;2022-11-20T00:48:46;100118.78;;;8.75;100.00
41862;BME280;27537;57.134;-2.136;2022-11-20T00:51:15;100146.06;;;8.68;100.00
41862;BME280;27537;57.134;-2.136;2022-11-20T00:53:43;100139.41;;;8.81;100.00
41862;BME280;27537;57.134;-2.136;2022-11-20T00:56:14;100112.91;;;8.70;100.00
41862;BME280;27537;57.134;-2.136;2022-11-20T00:58:43;100125.81;;;8.95;100.00
41862;BME280;27537;57.134;-2.136;2022-11-20T01:01:22;100125.44;;;9.04;100.00
41862;BME280;27537;57.134;-2.136;2022-11-20T01:03:52;100131.69;;;8.78;100.00
41862;BME280;27537;57.134;-2.136;2022-11-20T01:06:46;100112.41;;;8.82;100.00
41862;BME280;27537;57.134;-2.136;2022-11-20T01:09:14;100054.06;;;8.83;100.00
41862;BME280;27537;57.134;-2.136;2022-11-20T01:11:43;100067.53;;;8.72;100.00
41862;BME280;27537;57.134;-2.136;2022-11-20T01:14:13;100075.53;;;8.90;100.00
41862;BME280;27537;57.134;-2.136;2022-11-20T01:16:42;100054.38;;;8.76;100.00
41862;BME280;27537;57.134;-2.136;2022-11-20T01:19:15;100086.09;;;8.87;100.00
41862;BME280;27537;57.134;-2.136;2022-11-20T01:21:45;100065.16;;;8.88;100.00
41862;BME280;27537;57.134;-2.136;2022-11-20T01:24:14;100071.25;;;8.89;100.00
41862;BME280;27537;57.134;-2.136;2022-11-20T01:26:43;100076.31;;;8.71;100.00
41862;BME280;27537;57.134;-2.136;2022-11-20T01:29:15;100059.81;;;8.91;100.00
41862;BME280;27537;57.134;-2.136;2022-11-20T01:31:43;100054.66;;;8.90;100.00
41862;BME280;27537;57.134;-2.136;2022-11-20T01:34:13;100056.03;;;8.99;100.00
41862;BME280;27537;57.134;-2.136;2022-11-20T01:36:41;100053.44;;;9.19;100.00
41862;BME280;27537;57.134;-2.136;2022-11-20T01:39:14;100034.56;;;9.12;100.00
41862;BME280;27537;57.134;-2.136;2022-11-20T01:41:41;100036.59;;;9.06;100.00
41862;BME280;27537;57.134;-2.136;2022-11-20T01:50:04;100035.88;;;9.02;100.00
41862;BME280;27537;57.134;-2.136;2022-11-20T01:52:39;100004.47;;;8.63;100.00
41862;BME280;27537;57.134;-2.136;2022-11-20T01:55:13;100030.78;;;8.99;100.00
41862;BME280;27537;57.134;-2.136;2022-11-20T01:57:41;99978.75;;;8.95;100.00
41862;BME280;27537;57.134;-2.136;2022-11-20T02:00:13;100008.78;;;8.84;100.00
41862;BME280;27537;57.134;-2.136;2022-11-20T02:02:48;100026.00;;;8.88;100.00
41862;BME280;27537;57.134;-2.136;2022-11-20T02:05:24;99974.56;;;8.90;100.00
41862;BME280;27537;57.134;-2.136;2022-11-20T02:07:54;100012.13;;;9.08;100.00
41862;BME280;27537;57.134;-2.136;2022-11-20T02:10:21;100011.66;;;8.99;100.00
41862;BME280;27537;57.134;-2.136;2022-11-20T02:12:48;100008.41;;;9.14;100.00
41862;BME280;27537;57.134;-2.136;2022-11-20T02:15:34;99999.38;;;9.21;100.00
41862;BME280;27537;57.134;-2.136;2022-11-20T02:18:01;100006.72;;;9.32;100.00
41862;BME280;27537;57.134;-2.136;2022-11-20T02:20:28;100003.81;;;9.19;100.00
41862;BME280;27537;57.134;-2.136;2022-11-20T02:25:57;99998.72;;;9.16;100.00
41862;BME280;27537;57.134;-2.136;2022-11-20T02:28:25;100004.72;;;8.98;100.00
41862;BME280;27537;57.134;-2.136;2022-11-20T02:30:51;99990.75;;;8.99;100.00
41862;BME280;27537;57.134;-2.136;2022-11-20T02:33:18;99989.66;;;9.04;100.00
41862;BME280;27537;57.134;-2.136;2022-11-20T02:35:46;99986.19;;;9.04;100.00
41862;BME280;27537;57.134;-2.136;2022-11-20T02:38:13;99973.00;;;9.07;100.00
41862;BME280;27537;57.134;-2.136;2022-11-20T02:40:41;99982.16;;;9.17;100.00
41862;BME280;27537;57.134;-2.136;2022-11-20T02:43:08;99991.66;;;9.18;100.00
41862;BME280;27537;57.134;-2.136;2022-11-20T02:45:35;99974.31;;;9.17;100.00
41862;BME280;27537;57.134;-2.136;2022-11-20T02:48:02;99950.16;;;8.91;100.00
41862;BME280;27537;57.134;-2.136;2022-11-20T02:50:29;99967.97;;;9.02;100.00
41862;BME280;27537;57.134;-2.136;2022-11-20T02:52:56;99953.38;;;8.98;100.00
41862;BME280;27537;57.134;-2.136;2022-11-20T02:55:22;99957.28;;;9.08;100.00
41862;BME280;27537;57.134;-2.136;2022-11-20T02:57:49;99967.13;;;9.02;100.00
41862;BME280;27537;57.134;-2.136;2022-11-20T03:00:16;99941.97;;;9.20;100.00
41862;BME280;27537;57.134;-2.136;2022-11-20T03:02:43;99945.84;;;9.11;100.00
41862;BME280;27537;57.134;-2.136;2022-11-20T03:05:09;99901.81;;;8.83;100.00
41862;BME280;27537;57.134;-2.136;2022-11-20T03:07:36;99933.31;;;8.99;100.00
41862;BME280;27537;57.134;-2.136;2022-11-20T03:10:04;99937.09;;;9.12;100.00
41862;BME280;27537;57.134;-2.136;2022-11-20T03:12:31;99893.63;;;8.90;100.00
41862;BME280;27537;57.134;-2.136;2022-11-20T03:14:57;99937.66;;;9.19;100.00
41862;BME280;27537;57.134;-2.136;2022-11-20T03:17:24;99902.59;;;8.85;100.00
41862;BME280;27537;57.134;-2.136;2022-11-20T03:19:50;99920.44;;;8.94;100.00
41862;BME280;27537;57.134;-2.136;2022-11-20T03:22:17;99906.78;;;8.89;100.00
41862;BME280;27537;57.134;-2.136;2022-11-20T03:24:44;99905.00;;;8.69;100.00
41862;BME280;27537;57.134;-2.136;2022-11-20T03:27:11;99898.06;;;9.09;100.00
41862;BME280;27537;57.134;-2.136;2022-11-20T03:29:38;99910.34;;;9.07;100.00
41862;BME280;27537;57.134;-2.136;2022-11-20T03:32:05;99916.88;;;8.97;100.00
41862;BME280;27537;57.134;-2.136;2022-11-20T03:34:31;99876.66;;;9.01;100.00
41862;BME280;27537;57.134;-2.136;2022-11-20T03:36:58;99890.94;;;9.12;100.00
41862;BME280;27537;57.134;-2.136;2022-11-20T03:39:25;99882.81;;;9.19;100.00
41862;BME280;27537;57.134;-2.136;2022-11-20T03:41:52;99876.59;;;9.21;100.00
41862;BME280;27537;57.134;-2.136;2022-11-20T03:44:20;99884.44;;;9.21;100.00
41862;BME280;27537;57.134;-2.136;2022-11-20T03:46:47;99855.78;;;9.20;100.00
41862;BME280;27537;57.134;-2.136;2022-11-20T03:49:14;99875.91;;;8.78;100.00
41862;BME280;27537;57.134;-2.136;2022-11-20T03:51:41;99863.84;;;8.55;100.00
41862;BME280;27537;57.134;-2.136;2022-11-20T03:54:08;99878.97;;;8.67;100.00
41862;BME280;27537;57.134;-2.136;2022-11-20T03:56:37;99861.88;;;8.81;100.00
41862;BME280;27537;57.134;-2.136;2022-11-20T03:59:06;99872.91;;;8.87;100.00
41862;BME280;27537;57.134;-2.136;2022-11-20T04:01:34;99889.03;;;8.77;100.00
41862;BME280;27537;57.134;-2.136;2022-11-20T04:04:02;99869.66;;;8.62;100.00
41862;BME280;27537;57.134;-2.136;2022-11-20T04:06:33;99886.78;;;8.26;100.00
41862;BME280;27537;57.134;-2.136;2022-11-20T04:09:00;99872.63;;;7.89;100.00
41862;BME280;27537;57.134;-2.136;2022-11-20T04:11:29;99834.69;;;8.04;100.00
41862;BME280;27537;57.134;-2.136;2022-11-20T04:14:01;99870.84;;;8.54;100.00
41862;BME280;27537;57.134;-2.136;2022-11-20T04:16:33;99875.47;;;8.48;100.00
41862;BME280;27537;57.134;-2.136;2022-11-20T04:19:02;99824.00;;;8.10;100.00
41862;BME280;27537;57.134;-2.136;2022-11-20T04:21:29;99883.44;;;8.23;100.00
41862;BME280;27537;57.134;-2.136;2022-11-20T04:23:56;99866.97;;;8.22;100.00
41862;BME280;27537;57.134;-2.136;2022-11-20T04:26:25;99875.53;;;8.04;100.00
41862;BME280;27537;57.134;-2.136;2022-11-20T04:28:52;99858.03;;;7.85;100.00
41862;BME280;27537;57.134;-2.136;2022-11-20T04:31:21;99870.97;;;8.09;100.00
41862;BME280;27537;57.134;-2.136;2022-11-20T04:33:48;99828.47;;;7.64;100.00
41862;BME280;27537;57.134;-2.136;2022-11-20T04:36:20;99866.75;;;8.06;100.00
41862;BME280;27537;57.134;-2.136;2022-11-20T04:38:58;99878.00;;;7.86;100.00
41862;BME280;27537;57.134;-2.136;2022-11-20T04:41:27;99872.63;;;7.89;100.00
41862;BME280;27537;57.134;-2.136;2022-11-20T04:43:57;99870.56;;;7.75;100.00
41862;BME280;27537;57.134;-2.136;2022-11-20T04:46:27;99841.06;;;7.75;100.00
41862;BME280;27537;57.134;-2.136;2022-11-20T04:48:54;99856.84;;;7.50;100.00
41862;BME280;27537;57.134;-2.136;2022-11-20T04:51:21;99836.00;;;7.50;100.00
41862;BME280;27537;57.134;-2.136;2022-11-20T04:53:48;99817.50;;;7.56;100.00
41862;BME280;27537;57.134;-2.136;2022-11-20T04:56:15;99852.00;;;7.85;100.00
41862;BME280;27537;57.134;-2.136;2022-11-20T04:58:42;99837.91;;;7.89;100.00
41862;BME280;27537;57.134;-2.136;2022-11-20T05:01:14;99841.72;;;8.02;100.00
41862;BME280;27537;57.134;-2.136;2022-11-20T05:03:42;99851.16;;;8.05;100.00
41862;BME280;27537;57.134;-2.136;2022-11-20T05:06:11;99825.78;;;7.88;100.00
41862;BME280;27537;57.134;-2.136;2022-11-20T05:08:39;99855.06;;;7.94;100.00
41862;BME280;27537;57.134;-2.136;2022-11-20T05:11:18;99831.09;;;7.86;100.00
41862;BME280;27537;57.134;-2.136;2022-11-20T05:13:45;99813.56;;;7.68;100.00
41862;BME280;27537;57.134;-2.136;2022-11-20T05:16:14;99845.78;;;7.87;100.00
41862;BME280;27537;57.134;-2.136;2022-11-20T05:18:42;99821.63;;;7.84;100.00
41862;BME280;27537;57.134;-2.136;2022-11-20T05:21:10;99826.38;;;7.94;100.00
41862;BME280;27537;57.134;-2.136;2022-11-20T05:23:37;99838.31;;;8.00;100.00
41862;BME280;27537;57.134;-2.136;2022-11-20T05:26:06;99830.84;;;8.13;100.00
41862;BME280;27537;57.134;-2.136;2022-11-20T05:28:33;99833.25;;;7.97;100.00
41862;BME280;27537;57.134;-2.136;2022-11-20T05:31:21;99819.00;;;7.84;100.00
41862;BME280;27537;57.134;-2.136;2022-11-20T05:33:54;99818.56;;;7.74;100.00
41862;BME280;27537;57.134;-2.136;2022-11-20T05:36:21;99822.59;;;8.02;100.00
41862;BME280;27537;57.134;-2.136;2022-11-20T05:38:48;99820.28;;;7.73;100.00
41862;BME280;27537;57.134;-2.136;2022-11-20T05:41:18;99798.81;;;7.46;100.00
41862;BME280;27537;57.134;-2.136;2022-11-20T05:43:47;99794.44;;;7.47;100.00
41862;BME280;27537;57.134;-2.136;2022-11-20T05:46:16;99797.69;;;7.74;100.00
41862;BME280;27537;57.134;-2.136;2022-11-20T05:48:46;99793.94;;;7.81;100.00
41862;BME280;27537;57.134;-2.136;2022-11-20T05:51:16;99811.31;;;7.80;100.00
41862;BME280;27537;57.134;-2.136;2022-11-20T05:53:43;99802.94;;;7.94;100.00
41862;BME280;27537;57.134;-2.136;2022-11-20T05:56:19;99811.06;;;7.87;100.00
41862;BME280;27537;57.134;-2.136;2022-11-20T05:58:46;99784.19;;;7.64;100.00
41862;BME280;27537;57.134;-2.136;2022-11-20T06:01:19;99808.63;;;7.82;100.00
41862;BME280;27537;57.134;-2.136;2022-11-20T06:03:46;99794.66;;;7.63;100.00
41862;BME280;27537;57.134;-2.136;2022-11-20T06:06:15;99784.91;;;7.68;100.00
41862;BME280;27537;57.134;-2.136;2022-11-20T06:08:42;99796.44;;;7.62;100.00
41862;BME280;27537;57.134;-2.136;2022-11-20T06:11:11;99782.63;;;7.60;100.00
41862;BME280;27537;57.134;-2.136;2022-11-20T06:13:39;99766.00;;;7.42;100.00
41862;BME280;27537;57.134;-2.136;2022-11-20T06:16:08;99792.50;;;7.74;100.00
41862;BME280;27537;57.134;-2.136;2022-11-20T06:18:35;99767.44;;;7.70;100.00
41862;BME280;27537;57.134;-2.136;2022-11-20T06:21:06;99781.47;;;7.67;100.00
41862;BME280;27537;57.134;-2.136;2022-11-20T06:23:34;99785.19;;;7.62;100.00
41862;BME280;27537;57.134;-2.136;2022-11-20T06:26:04;99748.94;;;7.55;100.00
41862;BME280;27537;57.134;-2.136;2022-11-20T06:28:31;99785.09;;;7.63;100.00
41862;BME280;27537;57.134;-2.136;2022-11-20T06:30:58;99764.38;;;7.60;100.00
41862;BME280;27537;57.134;-2.136;2022-11-20T06:33:24;99772.09;;;7.41;100.00
41862;BME280;27537;57.134;-2.136;2022-11-20T06:35:51;99781.13;;;7.54;100.00
41862;BME280;27537;57.134;-2.136;2022-11-20T06:38:26;99758.31;;;7.59;100.00
41862;BME280;27537;57.134;-2.136;2022-11-20T06:40:53;99770.22;;;7.45;100.00
41862;BME280;27537;57.134;-2.136;2022-11-20T06:43:20;99768.78;;;7.80;100.00
41862;BME280;27537;57.134;-2.136;2022-11-20T06:45:52;99752.94;;;7.64;100.00
41862;BME280;27537;57.134;-2.136;2022-11-20T06:48:19;99769.34;;;7.66;100.00
41862;BME280;27537;57.134;-2.136;2022-11-20T06:50:46;99768.56;;;7.64;100.00
41862;BME280;27537;57.134;-2.136;2022-11-20T06:53:13;99767.13;;;7.57;100.00
41862;BME280;27537;57.134;-2.136;2022-11-20T06:55:47;99769.03;;;7.74;100.00
41862;BME280;27537;57.134;-2.136;2022-11-20T06:58:14;99762.47;;;7.43;100.00
41862;BME280;27537;57.134;-2.136;2022-11-20T07:00:42;99766.22;;;7.58;100.00
41862;BME280;27537;57.134;-2.136;2022-11-20T07:03:10;99758.63;;;7.52;100.00
41862;BME280;27537;57.134;-2.136;2022-11-20T07:05:38;99774.53;;;7.66;100.00
41862;BME280;27537;57.134;-2.136;2022-11-20T07:08:05;99765.16;;;7.40;100.00
41862;BME280;27537;57.134;-2.136;2022-11-20T07:10:32;99779.06;;;7.40;100.00
41862;BME280;27537;57.134;-2.136;2022-11-20T07:12:59;99775.53;;;7.41;100.00
41862;BME280;27537;57.134;-2.136;2022-11-20T07:15:26;99768.66;;;7.40;100.00
41862;BME280;27537;57.134;-2.136;2022-11-20T07:17:53;99758.97;;;7.65;100.00
41862;BME280;27537;57.134;-2.136;2022-11-20T07:20:20;99745.44;;;7.56;100.00
41862;BME280;27537;57.134;-2.136;2022-11-20T07:22:46;99769.88;;;7.74;100.00
41862;BME280;27537;57.134;-2.136;2022-11-20T07:25:13;99764.06;;;7.68;100.00
41862;BME280;27537;57.134;-2.136;2022-11-20T07:27:40;99755.91;;;7.55;100.00
41862;BME280;27537;57.134;-2.136;2022-11-20T07:30:07;99742.53;;;7.42;100.00
41862;BME280;27537;57.134;-2.136;2022-11-20T07:32:34;99738.91;;;7.46;100.00
41862;BME280;27537;57.134;-2.136;2022-11-20T07:35:01;99757.84;;;7.50;100.00
41862;BME280;27537;57.134;-2.136;2022-11-20T07:37:27;99741.94;;;7.35;100.00
41862;BME280;27537;57.134;-2.136;2022-11-20T07:39:54;99722.91;;;7.11;100.00
41862;BME280;27537;57.134;-2.136;2022-11-20T07:42:21;99767.06;;;7.36;100.00
41862;BME280;27537;57.134;-2.136;2022-11-20T07:44:47;99757.69;;;7.32;100.00
41862;BME280;27537;57.134;-2.136;2022-11-20T07:47:14;99729.16;;;7.29;100.00
41862;BME280;27537;57.134;-2.136;2022-11-20T07:49:41;99729.34;;;7.02;100.00
41862;BME280;27537;57.134;-2.136;2022-11-20T07:52:08;99749.78;;;7.12;100.00
41862;BME280;27537;57.134;-2.136;2022-11-20T07:54:34;99719.88;;;7.22;100.00
41862;BME280;27537;57.134;-2.136;2022-11-20T07:57:01;99675.16;;;6.90;100.00
41862;BME280;27537;57.134;-2.136;2022-11-20T07:59:28;99742.44;;;7.23;100.00
41862;BME280;27537;57.134;-2.136;2022-11-20T08:01:55;99727.47;;;7.28;100.00
41862;BME280;27537;57.134;-2.136;2022-11-20T08:04:21;99734.84;;;7.39;100.00
41862;BME280;27537;57.134;-2.136;2022-11-20T08:06:51;99719.94;;;7.20;100.00
41862;BME280;27537;57.134;-2.136;2022-11-20T08:09:18;99700.69;;;7.02;100.00
41862;BME280;27537;57.134;-2.136;2022-11-20T08:11:45;99685.59;;;7.12;100.00
41862;BME280;27537;57.134;-2.136;2022-11-20T08:14:30;99674.88;;;6.98;100.00
41862;BME280;27537;57.134;-2.136;2022-11-20T08:16:57;99697.78;;;7.32;100.00
41862;BME280;27537;57.134;-2.136;2022-11-20T08:19:24;99698.06;;;7.26;100.00
41862;BME280;27537;57.134;-2.136;2022-11-20T08:21:50;99684.47;;;7.18;100.00
41862;BME280;27537;57.134;-2.136;2022-11-20T08:24:17;99732.78;;;7.47;100.00
41862;BME280;27537;57.134;-2.136;2022-11-20T08:26:44;99719.50;;;7.53;100.00
41862;BME280;27537;57.134;-2.136;2022-11-20T08:29:10;99713.19;;;7.38;100.00
41862;BME280;27537;57.134;-2.136;2022-11-20T08:31:37;99724.81;;;7.30;100.00
41862;BME280;27537;57.134;-2.136;2022-11-20T08:34:04;99711.25;;;7.21;100.00
41862;BME280;27537;57.134;-2.136;2022-11-20T08:36:35;99745.88;;;7.46;100.00
41862;BME280;27537;57.134;-2.136;2022-11-20T08:39:03;99732.78;;;7.25;100.00
41862;BME280;27537;57.134;-2.136;2022-11-20T08:41:30;99723.94;;;7.29;100.00
41862;BME280;27537;57.134;-2.136;2022-11-20T08:44:01;99734.91;;;7.37;100.00
41862;BME280;27537;57.134;-2.136;2022-11-20T08:46:33;99735.75;;;7.38;100.00
41862;BME280;27537;57.134;-2.136;2022-11-20T08:49:00;99726.84;;;7.44;100.00
41862;BME280;27537;57.134;-2.136;2022-11-20T08:51:27;99713.69;;;7.47;100.00
41862;BME280;27537;57.134;-2.136;2022-11-20T08:53:53;99728.53;;;7.45;100.00
41862;BME280;27537;57.134;-2.136;2022-11-20T08:56:20;99721.00;;;7.38;100.00
41862;BME280;27537;57.134;-2.136;2022-11-20T08:58:47;99714.00;;;7.39;100.00
41862;BME280;27537;57.134;-2.136;2022-11-20T09:01:33;99725.81;;;7.68;100.00
41862;BME280;27537;57.134;-2.136;2022-11-20T09:04:01;99716.50;;;7.63;100.00
41862;BME280;27537;57.134;-2.136;2022-11-20T09:06:28;99693.19;;;7.39;100.00
41862;BME280;27537;57.134;-2.136;2022-11-20T09:08:54;99712.28;;;7.60;100.00
41862;BME280;27537;57.134;-2.136;2022-11-20T09:11:21;99713.50;;;7.51;100.00
41862;BME280;27537;57.134;-2.136;2022-11-20T09:13:49;99728.38;;;7.70;100.00
41862;BME280;27537;57.134;-2.136;2022-11-20T09:16:15;99695.59;;;7.64;100.00
41862;BME280;27537;57.134;-2.136;2022-11-20T09:18:42;99696.59;;;7.19;100.00
41862;BME280;27537;57.134;-2.136;2022-11-20T09:21:11;99697.38;;;7.64;100.00
41862;BME280;27537;57.134;-2.136;2022-11-20T09:23:38;99701.59;;;7.66;100.00
41862;BME280;27537;57.134;-2.136;2022-11-20T09:26:09;99702.25;;;7.51;100.00
41862;BME280;27537;57.134;-2.136;2022-11-20T09:28:36;99658.34;;;7.41;100.00
41862;BME280;27537;57.134;-2.136;2022-11-20T09:31:07;99652.88;;;7.27;100.00
41862;BME280;27537;57.134;-2.136;2022-11-20T09:33:35;99686.09;;;7.43;100.00
41862;BME280;27537;57.134;-2.136;2022-11-20T09:36:02;99681.75;;;7.64;100.00
41862;BME280;27537;57.134;-2.136;2022-11-20T09:38:29;99641.94;;;7.39;100.00
41862;BME280;27537;57.134;-2.136;2022-11-20T09:40:58;99691.69;;;7.95;100.00
41862;BME280;27537;57.134;-2.136;2022-11-20T09:43:49;99671.75;;;7.94;100.00
41862;BME280;27537;57.134;-2.136;2022-11-20T09:52:00;99654.31;;;8.15;100.00
41862;BME280;27537;57.134;-2.136;2022-11-20T09:54:36;99682.00;;;8.17;100.00
41862;BME280;27537;57.134;-2.136;2022-11-20T09:57:14;99676.78;;;8.17;100.00
41862;BME280;27537;57.134;-2.136;2022-11-20T09:59:46;99677.69;;;7.97;100.00
41862;BME280;27537;57.134;-2.136;2022-11-20T10:05:38;99679.56;;;8.14;100.00
41862;BME280;27537;57.134;-2.136;2022-11-20T10:10:42;99651.63;;;7.97;100.00
41862;BME280;27537;57.134;-2.136;2022-11-20T10:15:57;99671.81;;;7.92;100.00
41862;BME280;27537;57.134;-2.136;2022-11-20T10:18:53;99672.53;;;7.96;100.00
41862;BME280;27537;57.134;-2.136;2022-11-20T10:29:44;99650.66;;;8.19;100.00
41862;BME280;27537;57.134;-2.136;2022-11-20T10:32:29;99653.31;;;8.17;100.00
41862;BME280;27537;57.134;-2.136;2022-11-20T10:35:01;99649.13;;;7.94;100.00
41862;BME280;27537;57.134;-2.136;2022-11-20T10:37:32;99652.84;;;8.09;100.00
41862;BME280;27537;57.134;-2.136;2022-11-20T10:40:22;99642.97;;;8.16;100.00
41862;BME280;27537;57.134;-2.136;2022-11-20T10:42:55;99621.69;;;8.06;100.00
41862;BME280;27537;57.134;-2.136;2022-11-20T10:48:14;99643.09;;;8.52;100.00
41862;BME280;27537;57.134;-2.136;2022-11-20T10:56:25;99634.63;;;8.47;100.00
41862;BME280;27537;57.134;-2.136;2022-11-20T10:59:10;99633.84;;;8.64;100.00
41862;BME280;27537;57.134;-2.136;2022-11-20T11:01:41;99620.81;;;8.64;100.00
41862;BME280;27537;57.134;-2.136;2022-11-20T11:04:40;99634.81;;;8.81;100.00
41862;BME280;27537;57.134;-2.136;2022-11-20T11:07:13;99635.72;;;8.80;100.00
41862;BME280;27537;57.134;-2.136;2022-11-20T11:09:46;99635.34;;;8.87;100.00
41862;BME280;27537;57.134;-2.136;2022-11-20T11:12:13;99630.41;;;8.81;100.00
41862;BME280;27537;57.134;-2.136;2022-11-20T11:14:51;99627.63;;;8.67;100.00
41862;BME280;27537;57.134;-2.136;2022-11-20T11:17:33;99617.06;;;8.70;100.00
41862;BME280;27537;57.134;-2.136;2022-11-20T11:22:31;99623.91;;;8.90;100.00
41862;BME280;27537;57.134;-2.136;2022-11-20T11:24:58;99633.31;;;9.11;100.00
41862;BME280;27537;57.134;-2.136;2022-11-20T11:27:25;99624.06;;;8.87;100.00
41862;BME280;27537;57.134;-2.136;2022-11-20T11:30:03;99613.59;;;8.87;100.00
41862;BME280;27537;57.134;-2.136;2022-11-20T11:32:30;99622.94;;;8.92;100.00
41862;BME280;27537;57.134;-2.136;2022-11-20T11:35:06;99619.22;;;8.79;100.00
41862;BME280;27537;57.134;-2.136;2022-11-20T11:37:39;99617.22;;;8.84;100.00
41862;BME280;27537;57.134;-2.136;2022-11-20T11:40:08;99629.38;;;8.85;100.00
41862;BME280;27537;57.134;-2.136;2022-11-20T11:42:57;99613.09;;;8.80;100.00
41862;BME280;27537;57.134;-2.136;2022-11-20T11:45:26;99629.06;;;8.91;100.00
41862;BME280;27537;57.134;-2.136;2022-11-20T11:47:55;99633.06;;;8.99;100.00
41862;BME280;27537;57.134;-2.136;2022-11-20T11:50:23;99598.13;;;8.84;100.00
41862;BME280;27537;57.134;-2.136;2022-11-20T11:52:56;99634.31;;;9.09;100.00
41862;BME280;27537;57.134;-2.136;2022-11-20T12:00:39;99611.09;;;9.20;100.00
41862;BME280;27537;57.134;-2.136;2022-11-20T12:03:28;99578.25;;;8.99;100.00
41862;BME280;27537;57.134;-2.136;2022-11-20T12:06:01;99618.66;;;9.26;100.00
41862;BME280;27537;57.134;-2.136;2022-11-20T12:11:37;99605.41;;;9.29;100.00
41862;BME280;27537;57.134;-2.136;2022-11-20T12:16:54;99618.03;;;9.56;100.00
41862;BME280;27537;57.134;-2.136;2022-11-20T12:19:24;99618.72;;;9.60;100.00
41862;BME280;27537;57.134;-2.136;2022-11-20T12:27:27;99600.50;;;9.92;100.00
41862;BME280;27537;57.134;-2.136;2022-11-20T12:30:12;99603.81;;;9.95;100.00
41862;BME280;27537;57.134;-2.136;2022-11-20T12:52:56;99580.19;;;10.13;100.00
41862;BME280;27537;57.134;-2.136;2022-11-20T13:01:24;99521.41;;;9.88;100.00
41862;BME280;27537;57.134;-2.136;2022-11-20T13:06:54;99569.16;;;10.23;100.00
41862;BME280;27537;57.134;-2.136;2022-11-20T13:09:22;99573.44;;;10.24;100.00
41862;BME280;27537;57.134;-2.136;2022-11-20T13:18:00;99581.13;;;9.96;100.00
41862;BME280;27537;57.134;-2.136;2022-11-20T13:20:29;99588.69;;;9.84;100.00
41862;BME280;27537;57.134;-2.136;2022-11-20T13:22:57;99590.41;;;10.01;100.00
41862;BME280;27537;57.134;-2.136;2022-11-20T13:25:35;99601.44;;;9.91;100.00
41862;BME280;27537;57.134;-2.136;2022-11-20T13:28:26;99605.91;;;9.88;100.00
41862;BME280;27537;57.134;-2.136;2022-11-20T13:30:54;99589.38;;;9.88;100.00
41862;BME280;27537;57.134;-2.136;2022-11-20T13:33:34;99597.44;;;9.83;100.00
41862;BME280;27537;57.134;-2.136;2022-11-20T13:36:19;99604.72;;;9.61;100.00
41862;BME280;27537;57.134;-2.136;2022-11-20T13:38:49;99589.50;;;9.52;100.00
41862;BME280;27537;57.134;-2.136;2022-11-20T13:41:31;99600.94;;;9.66;100.00
41862;BME280;27537;57.134;-2.136;2022-11-20T13:44:27;99616.66;;;9.82;100.00
41862;BME280;27537;57.134;-2.136;2022-11-20T13:46:55;99594.25;;;9.61;100.00
41862;BME280;27537;57.134;-2.136;2022-11-20T13:49:38;99618.63;;;9.61;100.00
41862;BME280;27537;57.134;-2.136;2022-11-20T13:58:46;99628.75;;;9.85;100.00
41862;BME280;27537;57.134;-2.136;2022-11-20T14:01:19;99601.34;;;9.59;100.00
41862;BME280;27537;57.134;-2.136;2022-11-20T14:03:47;99612.63;;;9.59;100.00
41862;BME280;27537;57.134;-2.136;2022-11-20T14:06:38;99624.25;;;9.54;100.00
41862;BME280;27537;57.134;-2.136;2022-11-20T14:09:12;99597.66;;;9.45;100.00
41862;BME280;27537;57.134;-2.136;2022-11-20T14:11:46;99621.72;;;9.52;100.00
41862;BME280;27537;57.134;-2.136;2022-11-20T14:16:47;99631.69;;;9.61;100.00
41862;BME280;27537;57.134;-2.136;2022-11-20T14:21:47;99648.84;;;9.32;100.00
41862;BME280;27537;57.134;-2.136;2022-11-20T14:24:19;99609.34;;;9.03;100.00
41862;BME280;27537;57.134;-2.136;2022-11-20T14:26:47;99634.94;;;9.31;100.00
41862;BME280;27537;57.134;-2.136;2022-11-20T14:29:16;99620.88;;;9.17;100.00
41862;BME280;27537;57.134;-2.136;2022-11-20T14:31:48;99639.78;;;9.22;100.00
41862;BME280;27537;57.134;-2.136;2022-11-20T14:34:27;99639.78;;;9.22;100.00
41862;BME280;27537;57.134;-2.136;2022-11-20T14:37:04;99633.38;;;9.10;100.00
41862;BME280;27537;57.134;-2.136;2022-11-20T14:39:34;99619.47;;;8.92;100.00
41862;BME280;27537;57.134;-2.136;2022-11-20T14:42:03;99636.69;;;8.96;100.00
41862;BME280;27537;57.134;-2.136;2022-11-20T14:44:40;99634.84;;;8.98;100.00
41862;BME280;27537;57.134;-2.136;2022-11-20T14:47:11;99629.75;;;8.95;100.00
41862;BME280;27537;57.134;-2.136;2022-11-20T14:49:39;99646.44;;;8.92;100.00